Time;durP1;ratioP1;P1;durP2;ratioP2;P2;SDS_P1;SDS_P2;PMS_P1;PMS_P2;Temp;Humidity;BMP_temperature;BMP_pressure;BME280_temperature;BME280_humidity;BME280_pressure;Samples;Min_cycle;Max_cycle;Signal;HPM_P1;HPM_P2
2022/08/12 00:43:48;;;;;;;;;3.00;3.00;;;;;17.46;64.74;99763.25;6289079;20;2736744;-50
2022/08/12 00:46:30;;;;;;;;;3.00;3.00;;;;;17.23;65.39;99772.56;6289161;20;2735743;-48
2022/08/12 00:49:00;;;;;;;;;5.00;3.00;;;;;16.98;66.30;99768.41;6289178;20;2740875;-51
2022/08/12 00:52:05;;;;;;;;;2.00;2.00;;;;;17.13;66.05;99758.94;6286007;20;2744051;-50
2022/08/12 00:54:19;;;;;;;;;3.00;3.00;;;;;17.44;64.83;99764.38;6290008;20;2740877;-50
2022/08/12 00:56:49;;;;;;;;;3.00;3.00;;;;;17.69;63.63;99763.91;6288372;20;2741957;-47
2022/08/12 00:59:18;;;;;;;;;3.00;3.00;;;;;17.46;64.07;99765.09;6287664;20;2751285;-50
2022/08/12 01:01:47;;;;;;;;;5.00;3.00;;;;;17.60;63.98;99761.16;6288477;20;2742432;-46
2022/08/12 01:13:02;;;;;;;;;5.00;3.00;;;;;17.27;65.07;99755.00;6290564;20;2746135;-51
2022/08/12 01:16:07;;;;;;;;;4.00;4.00;;;;;17.49;64.69;99759.38;6287318;20;2756660;-47
2022/08/12 01:18:40;;;;;;;;;3.00;3.00;;;;;17.44;64.52;99756.22;6288484;20;2753458;-51
2022/08/12 01:22:25;;;;;;;;;4.00;3.00;;;;;17.55;64.34;99758.84;6284711;20;2753511;-48
2022/08/12 01:25:12;;;;;;;;;4.00;4.00;;;;;17.37;64.62;99753.19;6288601;20;2740888;-48
2022/08/12 01:27:40;;;;;;;;;3.50;3.00;;;;;17.11;65.44;99750.06;6287871;20;2730457;-47
2022/08/12 01:30:13;;;;;;;;;5.00;3.50;;;;;17.27;65.34;99747.75;6288670;20;2756559;-47
2022/08/12 01:32:41;;;;;;;;;3.00;3.00;;;;;17.35;64.78;99747.03;6290818;20;2739830;-50
2022/08/12 01:35:11;;;;;;;;;4.00;3.00;;;;;17.34;64.85;99746.16;6288250;20;2739930;-48
2022/08/12 01:37:56;;;;;;;;;4.00;4.00;;;;;17.28;65.12;99744.00;6288771;20;2747126;-49
2022/08/12 01:40:37;;;;;;;;;6.00;5.00;;;;;17.13;66.08;99741.78;6303535;20;1810943;-46
2022/08/12 01:43:16;;;;;;;;;5.00;3.00;;;;;17.08;65.46;99734.91;6317318;20;2738148;-48
2022/08/12 01:46:21;;;;;;;;;4.00;4.00;;;;;16.82;67.35;99739.03;6287047;20;2749240;-46
2022/08/12 01:49:40;;;;;;;;;5.00;3.50;;;;;16.97;66.51;99742.28;6284798;20;2739834;-52
2022/08/12 01:52:38;;;;;;;;;3.00;2.00;;;;;16.98;66.91;99738.56;6287758;20;2724231;-49
2022/08/12 01:55:06;;;;;;;;;3.00;3.00;;;;;17.07;66.18;99729.63;6286614;20;2744031;-48
2022/08/12 01:57:57;;;;;;;;;4.00;4.00;;;;;16.96;66.70;99729.72;6283436;20;2746214;-48
2022/08/12 02:00:50;;;;;;;;;4.00;2.75;;;;;17.04;66.68;99722.63;6301965;20;1806343;-48
2022/08/12 02:13:33;;;;;;;;;4.00;3.50;;;;;17.08;66.71;99710.50;6285224;20;2749215;-48
2022/08/12 02:16:57;;;;;;;;;4.00;4.00;;;;;16.98;67.15;99701.47;6288977;20;2748682;-48
2022/08/12 02:20:06;;;;;;;;;4.00;4.00;;;;;16.98;66.85;99700.59;6286208;20;2740930;-48
2022/08/12 02:22:44;;;;;;;;;3.60;3.60;;;;;16.95;67.24;99700.88;6312140;20;2754823;-47
2022/08/12 02:25:27;;;;;;;;;4.00;4.00;;;;;16.94;67.29;99696.44;6315206;20;2748165;-49
2022/08/12 02:27:56;;;;;;;;;3.00;3.00;;;;;16.85;67.49;99698.97;6286998;20;2731481;-49
2022/08/12 02:30:30;;;;;;;;;5.00;3.00;;;;;16.84;67.71;99702.66;6287194;20;2741974;-48
2022/08/12 02:33:10;;;;;;;;;8.00;5.00;;;;;16.92;67.29;99695.72;6285432;20;2742960;-47
2022/08/12 02:35:39;;;;;;;;;6.00;4.50;;;;;16.85;67.83;99701.69;6289117;20;2743063;-47
2022/08/12 02:38:10;;;;;;;;;3.00;3.00;;;;;16.88;67.61;99700.56;6287120;20;2747153;-47
2022/08/12 02:40:41;;;;;;;;;3.00;3.00;;;;;16.78;68.11;99692.38;6290038;20;2723251;-48
2022/08/12 02:43:53;;;;;;;;;5.00;3.00;;;;;16.49;69.22;99692.16;6282628;20;2748294;-48
2022/08/12 02:46:34;;;;;;;;;6.00;4.00;;;;;16.71;68.34;99693.84;6284614;20;2753449;-49
2022/08/12 02:49:30;;;;;;;;;5.00;5.00;;;;;16.79;68.19;99702.19;6285287;20;2742979;-47
2022/08/12 02:51:59;;;;;;;;;4.00;4.00;;;;;16.64;68.79;99700.78;6285765;20;2741967;-48
2022/08/12 02:54:27;;;;;;;;;3.00;3.00;;;;;16.82;67.99;99699.22;6291744;20;2639045;-49
2022/08/12 02:56:55;;;;;;;;;6.00;4.00;;;;;16.85;67.67;99690.84;6285126;20;2743349;-48
2022/08/12 02:59:26;;;;;;;;;5.00;4.00;;;;;16.79;67.84;99693.22;6284772;20;2748213;-49
2022/08/12 03:02:02;;;;;;;;;5.00;5.00;;;;;16.69;68.57;99701.25;6286432;20;2744413;-47
2022/08/12 03:04:45;;;;;;;;;5.00;5.00;;;;;16.63;68.86;99701.78;6285740;20;2748765;-52
2022/08/12 03:07:34;;;;;;;;;4.00;4.00;;;;;16.64;69.00;99703.50;6284281;20;2743028;-48
2022/08/12 03:10:23;;;;;;;;;4.50;4.50;;;;;16.62;68.85;99695.50;6289994;20;2748322;-48
2022/08/12 03:13:07;;;;;;;;;5.00;5.00;;;;;16.67;68.59;99700.53;6288571;20;2738859;-49
2022/08/12 03:15:35;;;;;;;;;3.00;3.00;;;;;16.68;68.89;99699.53;6290889;20;2727501;-50
2022/08/12 03:18:36;;;;;;;;;6.00;6.00;;;;;16.63;69.04;99696.38;6290735;20;2732719;-47
2022/08/12 03:21:04;;;;;;;;;5.00;5.00;;;;;16.68;68.32;99702.25;6285259;20;2742978;-52
2022/08/12 03:23:40;;;;;;;;;4.57;4.57;;;;;16.71;68.49;99701.97;6332692;20;3434779;-52
2022/08/12 03:26:08;;;;;;;;;5.00;5.00;;;;;16.62;69.02;99694.66;6317449;20;2748264;-51
2022/08/12 03:28:56;;;;;;;;;4.00;4.00;;;;;16.54;69.10;99691.75;6291961;20;2729420;-52
2022/08/12 03:31:33;;;;;;;;;4.50;3.00;;;;;16.62;68.94;99702.78;6286320;20;2744020;-53
2022/08/12 03:34:09;;;;;;;;;4.00;4.00;;;;;16.61;68.66;99699.22;6288980;20;2746099;-51
2022/08/12 03:36:40;;;;;;;;;3.00;3.00;;;;;16.59;69.02;99694.94;6290580;20;2727407;-50
2022/08/12 03:42:27;;;;;;;;;6.00;6.00;;;;;16.66;69.03;99690.69;6292250;20;2742976;-50
2022/08/12 04:02:18;;;;;;;;;5.50;4.00;;;;;16.62;69.53;99710.94;6290685;20;2738819;-48
2022/08/12 04:04:46;;;;;;;;;4.00;4.00;;;;;16.69;69.37;99706.66;6293616;20;2742964;-47
2022/08/12 04:07:16;;;;;;;;;5.00;4.50;;;;;16.69;69.27;99717.50;6286558;20;2747155;-50
2022/08/12 04:09:45;;;;;;;;;6.00;6.00;;;;;16.57;69.85;99719.44;6291856;20;2732703;-48
2022/08/12 04:15:03;;;;;;;;;5.00;5.00;;;;;16.50;69.95;99715.53;6293757;20;2745040;-47
2022/08/12 04:17:31;;;;;;;;;4.00;4.00;;;;;16.69;69.35;99720.22;6289154;20;2747157;-49
2022/08/12 04:19:59;;;;;;;;;6.00;5.00;;;;;16.89;68.69;99719.38;6291006;20;2748250;-47
2022/08/12 04:22:29;;;;;;;;;6.00;5.00;;;;;16.94;68.64;99719.00;6289315;20;2744262;-48
2022/08/12 04:25:01;;;;;;;;;4.00;4.00;;;;;16.72;69.94;99719.09;6290220;20;2748291;-56
2022/08/12 04:27:30;;;;;;;;;4.00;4.00;;;;;16.77;70.15;99731.31;6289718;20;2732759;-45
2022/08/12 04:30:00;;;;;;;;;4.00;4.00;;;;;17.08;68.29;99725.91;6289051;20;2746115;-55
2022/08/12 04:32:51;;;;;;;;;6.50;5.50;;;;;17.20;67.37;99727.56;6284713;20;2733611;-49
2022/08/12 04:35:20;;;;;;;;;6.00;5.00;;;;;17.27;67.51;99734.16;6290269;20;2738931;-48
2022/08/12 04:37:55;;;;;;;;;5.50;4.50;;;;;17.16;68.50;99738.81;6287920;20;2740014;-45
2022/08/12 04:40:35;;;;;;;;;5.00;5.00;;;;;16.94;69.47;99731.72;6344978;20;3440013;-44
2022/08/12 04:43:04;;;;;;;;;5.00;5.00;;;;;16.96;69.78;99746.00;6321892;20;2733631;-44
2022/08/12 04:45:36;;;;;;;;;5.00;5.00;;;;;17.23;68.21;99745.41;6289892;20;2740929;-45
2022/08/12 04:48:05;;;;;;;;;4.00;4.00;;;;;17.40;67.60;99752.06;6288835;20;2751707;-47
2022/08/12 04:50:34;;;;;;;;;6.00;6.00;;;;;17.33;67.78;99747.19;6290803;20;2735762;-44
2022/08/12 04:53:08;;;;;;;;;6.00;6.00;;;;;17.37;67.21;99747.75;6285758;20;2739919;-45
2022/08/12 04:55:39;;;;;;;;;4.00;4.00;;;;;17.29;68.31;99744.88;6292476;20;2733730;-47
2022/08/12 04:58:10;;;;;;;;;5.00;5.00;;;;;17.49;67.23;99751.25;6313119;20;2738830;-46
2022/08/12 05:00:41;;;;;;;;;9.00;5.50;;;;;18.09;65.44;99751.25;6320703;20;2748184;-46
2022/08/12 05:03:09;;;;;;;;;6.00;6.00;;;;;18.36;64.09;99754.16;6292350;20;2736744;-45
2022/08/12 05:05:39;;;;;;;;;6.00;6.00;;;;;18.14;65.00;99744.44;6288791;20;2735838;-45
2022/08/12 05:08:15;;;;;;;;;4.00;4.00;;;;;17.98;65.32;99739.56;6289278;20;2743065;-46
2022/08/12 05:10:47;;;;;;;;;4.57;4.57;;;;;18.18;64.85;99740.41;6328176;20;3455471;-46
2022/08/12 05:13:27;;;;;;;;;5.50;5.50;;;;;18.19;65.28;99744.00;6317683;20;2737759;-44
2022/08/12 05:15:55;;;;;;;;;5.50;5.50;;;;;18.47;64.14;99742.28;6290317;20;2736688;-48
2022/08/12 05:18:38;;;;;;;;;4.40;4.40;;;;;18.30;65.71;99748.44;6313826;20;2738899;-44
2022/08/12 05:21:14;;;;;;;;;7.00;5.80;;;;;20.28;58.89;99754.69;6345407;20;2738780;-45
2022/08/12 05:23:45;;;;;;;;;5.57;5.57;;;;;22.10;52.49;99764.75;6361174;20;3450217;-44
2022/08/12 05:26:12;;;;;;;;;4.00;4.00;;;;;20.97;56.31;99750.34;6321051;20;2735705;-44
2022/08/12 05:28:41;;;;;;;;;6.00;4.50;;;;;23.98;47.72;99771.13;6295958;20;2748175;-43
2022/08/12 05:31:10;;;;;;;;;5.00;5.00;;;;;23.70;48.03;99763.34;6294516;20;2750278;-44
2022/08/12 05:33:39;;;;;;;;;5.33;5.33;;;;;20.56;57.01;99762.78;6318777;20;2738826;-43
2022/08/12 05:36:14;;;;;;;;;5.00;3.67;;;;;21.71;54.70;99764.44;6320935;20;2750444;-45
2022/08/12 05:38:55;;;;;;;;;5.80;5.80;;;;;20.36;58.27;99760.22;6344814;20;2737812;-45
2022/08/12 05:41:34;;;;;;;;;6.00;6.00;;;;;19.59;60.71;99749.75;6345769;20;2742958;-43
2022/08/12 05:44:08;;;;;;;;;5.80;5.80;;;;;19.40;61.86;99754.28;6344436;20;2746101;-44
2022/08/12 05:46:39;;;;;;;;;6.00;5.00;;;;;19.82;61.90;99756.53;6340799;20;2747178;-46
2022/08/12 05:49:09;;;;;;;;;7.40;7.00;;;;;19.65;61.43;99752.75;6312920;20;2743062;-45
2022/08/12 05:51:38;;;;;;;;;7.00;5.00;;;;;19.78;60.95;99757.03;6318378;20;2738813;-46
2022/08/12 05:54:10;;;;;;;;;5.50;5.50;;;;;20.05;59.48;99758.84;6292618;20;2738825;-44
2022/08/12 05:56:40;;;;;;;;;6.40;6.00;;;;;20.75;57.96;99754.44;6313392;20;2744465;-47
2022/08/12 05:59:12;;;;;;;;;7.80;6.00;;;;;20.75;57.43;99757.19;6344315;20;2734630;-45
2022/08/12 06:01:42;;;;;;;;;6.00;6.00;;;;;20.53;57.57;99758.47;6343476;20;2743997;-47
2022/08/12 06:04:31;;;;;;;;;6.00;5.00;;;;;20.33;59.23;99763.25;6319312;20;2751347;-46
2022/08/12 06:07:01;;;;;;;;;7.40;7.40;;;;;19.61;61.52;99756.75;6342172;20;2736721;-44
2022/08/12 06:09:50;;;;;;;;;5.33;5.33;;;;;19.82;61.20;99764.72;6344709;20;1912832;-46
2022/08/12 06:12:22;;;;;;;;;6.00;6.00;;;;;20.34;59.43;99767.69;6284808;20;2742030;-45
2022/08/12 06:14:54;;;;;;;;;5.00;5.00;;;;;19.99;59.79;99767.66;6344289;20;2721504;-46
2022/08/12 06:17:24;;;;;;;;;6.80;5.60;;;;;20.00;59.55;99769.38;6341837;20;2739978;-44
2022/08/12 06:19:52;;;;;;;;;5.00;4.00;;;;;21.83;54.29;99773.22;6320143;20;2746162;-43
2022/08/12 06:22:50;;;;;;;;;9.67;6.33;;;;;20.94;55.34;99768.91;6320032;20;2740921;-44
2022/08/12 06:25:25;;;;;;;;;6.33;6.33;;;;;20.90;56.36;99767.50;6317821;20;2746089;-44
2022/08/12 06:27:58;;;;;;;;;7.00;7.00;;;;;20.94;56.20;99766.19;6339666;20;2731554;-46
2022/08/12 06:30:36;;;;;;;;;4.80;4.00;;;;;20.61;56.76;99771.38;6341809;20;2752350;-45
2022/08/12 06:33:12;;;;;;;;;8.80;7.80;;;;;20.97;55.51;99768.59;6341227;20;2733741;-44
2022/08/12 06:35:53;;;;;;;;;5.00;5.00;;;;;21.19;55.42;99773.50;6343842;20;2734645;-44
2022/08/12 06:38:29;;;;;;;;;6.00;6.00;;;;;21.42;54.93;99764.81;6344117;20;1910695;-45
2022/08/12 06:43:50;;;;;;;;;6.20;6.00;;;;;21.48;54.64;99766.88;6342714;20;2735660;-44
2022/08/12 06:46:35;;;;;;;;;7.00;5.60;;;;;21.35;54.90;99775.50;6340108;20;2733733;-45
2022/08/12 06:49:05;;;;;;;;;7.20;7.20;;;;;24.77;47.33;99781.97;6344184;20;2728381;-45
2022/08/12 06:51:34;;;;;;;;;3.33;3.33;;;;;22.45;50.57;99779.22;6319560;20;2754512;-46
2022/08/12 06:54:04;;;;;;;;;7.00;7.00;;;;;24.10;48.62;99777.94;6339976;20;2729436;-46
2022/08/12 06:56:33;;;;;;;;;7.00;7.00;;;;;22.99;49.48;99781.50;6338774;20;2736887;-48
2022/08/12 06:59:23;;;;;;;;;6.80;6.80;;;;;23.80;48.11;99783.22;6312020;20;2737101;-48
2022/08/12 07:01:53;;;;;;;;;6.00;6.00;;;;;25.09;46.13;99778.09;6316798;20;2743019;-45
2022/08/12 07:04:23;;;;;;;;;5.60;4.40;;;;;23.59;48.61;99785.66;6331725;20;2754501;-53
2022/08/12 07:07:09;;;;;;;;;5.20;5.20;;;;;23.08;49.97;99776.88;6309224;20;2742495;-55
2022/08/12 07:09:41;;;;;;;;;6.60;6.60;;;;;24.26;47.85;99780.59;6308506;20;2729531;-54
2022/08/12 07:12:31;;;;;;;;;4.60;4.60;;;;;23.51;49.34;99781.03;6340311;20;2750738;-56
2022/08/12 07:15:00;;;;;;;;;7.33;6.00;;;;;23.91;48.17;99775.63;6286889;20;2746136;-55
2022/08/12 07:17:35;;;;;;;;;6.00;6.00;;;;;24.67;47.03;99783.09;6339307;20;2745119;-57
2022/08/12 07:20:11;;;;;;;;;8.00;8.00;;;;;25.03;45.88;99787.09;6283010;20;2756568;-55
2022/08/12 07:23:04;;;;;;;;;5.00;5.00;;;;;24.36;46.97;99795.97;6316864;20;2734717;-54
2022/08/12 07:25:35;;;;;;;;;7.33;7.33;;;;;24.68;45.91;99784.78;6317038;20;2750241;-60
2022/08/12 07:28:34;;;;;;;;;5.20;5.20;;;;;23.70;48.52;99779.81;6337088;20;2739894;-60
2022/08/12 07:31:06;;;;;;;;;7.33;6.00;;;;;24.81;46.67;99786.94;6286916;20;2736764;-60
2022/08/12 07:33:39;;;;;;;;;6.67;5.67;;;;;25.03;45.60;99787.09;6315303;20;2735663;-60
2022/08/12 07:36:13;;;;;;;;;3.60;3.60;;;;;23.60;48.18;99784.63;6342441;20;2745071;-60
2022/08/12 07:38:47;;;;;;;;;6.60;6.60;;;;;25.50;44.66;99789.56;6308254;20;2738198;-61
2022/08/12 07:41:29;;;;;;;;;6.00;6.00;;;;;24.03;47.72;99785.16;6285068;20;2737756;-60
2022/08/12 07:44:07;;;;;;;;;5.00;5.00;;;;;24.41;47.43;99793.50;6336869;20;2747257;-60
2022/08/12 07:46:42;;;;;;;;;8.67;5.67;;;;;25.60;45.33;99795.63;6273709;20;2730632;-50
2022/08/12 07:49:14;;;;;;;;;7.33;6.00;;;;;24.70;46.09;99790.97;6318148;20;2741981;-48
2022/08/12 07:51:44;;;;;;;;;7.40;6.60;;;;;24.29;47.32;99782.97;6342235;20;2746131;-48
2022/08/12 07:54:13;;;;;;;;;5.67;5.67;;;;;24.27;47.44;99782.28;6281294;20;2737797;-46
2022/08/12 07:56:42;;;;;;;;;5.80;5.80;;;;;23.49;48.41;99788.63;6337694;20;2733615;-47
2022/08/12 07:59:12;;;;;;;;;6.00;5.60;;;;;24.34;47.46;99790.66;6342799;20;2740962;-46
2022/08/12 08:01:42;;;;;;;;;3.67;3.67;;;;;23.52;48.17;99787.41;6296815;20;2746149;-46
2022/08/12 08:07:00;;;;;;;;;5.60;5.60;;;;;24.13;47.54;99785.81;6346310;20;2732599;-47
2022/08/12 08:09:30;;;;;;;;;6.20;6.00;;;;;24.88;45.95;99784.28;6345711;20;2738840;-47
2022/08/12 08:14:50;;;;;;;;;5.20;5.20;;;;;24.08;46.63;99788.22;6344339;20;2738795;-45
2022/08/12 08:17:20;;;;;;;;;6.00;6.00;;;;;23.41;48.67;99786.75;6313044;20;2746165;-46
2022/08/12 08:19:54;;;;;;;;;5.00;5.00;;;;;24.30;47.48;99789.28;6313760;20;2735704;-48
2022/08/12 08:22:34;;;;;;;;;6.00;6.00;;;;;23.54;49.16;99782.56;6347307;20;2731659;-50
2022/08/12 08:25:19;;;;;;;;;3.40;2.00;;;;;23.59;48.12;99778.31;6314632;20;2742149;-47
2022/08/12 08:28:15;;;;;;;;;4.40;4.40;;;;;23.11;48.75;99782.84;6345618;20;2751372;-49
2022/08/12 08:30:47;;;;;;;;;7.33;7.33;;;;;23.76;48.22;99779.13;6288025;20;2754501;-50
2022/08/12 08:33:19;;;;;;;;;5.60;4.40;;;;;23.66;48.93;99783.91;6346427;20;2734732;-53
2022/08/12 08:36:09;;;;;;;;;3.80;3.80;;;;;23.18;49.54;99783.88;6338511;20;2741944;-51
2022/08/12 08:38:51;;;;;;;;;5.67;5.67;;;;;23.50;48.01;99790.31;6290791;20;2736753;-50
2022/08/12 08:44:38;;;;;;;;;5.00;5.00;;;;;23.87;48.14;99791.59;6311931;20;2742073;-50
2022/08/12 08:47:11;;;;;;;;;8.00;8.00;;;;;24.00;47.01;99796.50;6311613;20;2748177;-52
2022/08/12 08:49:41;;;;;;;;;8.00;5.80;;;;;23.55;48.06;99787.91;6313020;20;2747648;-55
2022/08/12 08:52:11;;;;;;;;;6.67;6.67;;;;;23.22;49.63;99787.09;6286556;20;2732548;-53
2022/08/12 08:55:00;;;;;;;;;6.60;6.60;;;;;23.73;48.42;99779.47;6341082;20;2736741;-53
2022/08/12 08:57:29;;;;;;;;;4.00;4.00;;;;;23.71;48.43;99776.03;6285419;20;2740874;-51
2022/08/12 09:00:19;;;;;;;;;9.33;6.00;;;;;23.53;49.18;99784.47;6318155;20;2738828;-59
2022/08/12 09:02:49;;;;;;;;;7.60;7.60;;;;;23.70;48.33;99779.81;6341923;20;2748203;-59
2022/08/12 09:05:28;;;;;;;;;5.00;4.00;;;;;23.21;49.50;99786.25;6310041;20;2752350;-59
2022/08/12 09:08:18;;;;;;;;;8.20;6.60;;;;;23.56;49.08;99783.25;6311413;20;2732582;-58
2022/08/12 09:10:57;;;;;;;;;7.00;7.00;;;;;23.64;48.71;99769.53;6345037;20;2732550;-56
2022/08/12 09:13:46;;;;;;;;;6.00;6.00;;;;;23.27;49.41;99779.22;6342171;20;2743001;-58
2022/08/12 09:16:38;;;;;;;;;7.33;7.33;;;;;23.10;50.22;99777.56;6285989;20;2747146;-57
2022/08/12 09:19:13;;;;;;;;;7.20;6.00;;;;;23.14;49.73;99774.28;6343248;20;2726324;-56
2022/08/12 09:21:57;;;;;;;;;7.00;7.00;;;;;22.98;50.57;99769.66;6345328;20;2752357;-60
2022/08/12 09:24:47;;;;;;;;;7.00;7.00;;;;;23.03;51.16;99765.56;6311026;20;2731627;-59
2022/08/12 09:27:16;;;;;;;;;5.33;5.33;;;;;23.11;50.34;99758.19;6320454;20;2737737;-58
2022/08/12 09:29:46;;;;;;;;;7.40;7.40;;;;;22.89;51.11;99759.72;6342400;20;2740880;-57
2022/08/12 09:32:36;;;;;;;;;5.60;5.00;;;;;22.89;50.39;99753.41;6345171;20;2742007;-59
2022/08/12 09:35:32;;;;;;;;;7.80;7.80;;;;;22.99;50.55;99749.50;6345024;20;2730456;-60
2022/08/12 09:38:15;;;;;;;;;6.40;6.40;;;;;22.69;51.96;99750.16;6342017;20;2745189;-58
2022/08/12 09:40:58;;;;;;;;;6.60;6.60;;;;;23.03;51.28;99757.34;6313792;20;2740904;-58
2022/08/12 09:46:57;;;;;;;;;7.00;7.00;;;;;23.58;50.08;99748.31;6342162;20;2734613;-60
2022/08/12 09:49:34;;;;;;;;;6.00;6.00;;;;;23.51;49.59;99750.03;6342013;20;2732680;-60
2022/08/12 09:52:14;;;;;;;;;5.20;5.20;;;;;23.59;49.45;99750.91;6342801;20;2738304;-60
2022/08/12 09:54:43;;;;;;;;;8.40;6.40;;;;;24.31;47.14;99750.72;6343183;20;2745036;-60
2022/08/12 09:57:18;;;;;;;;;7.20;6.00;;;;;24.60;47.13;99748.31;6309522;20;2731513;-60
2022/08/12 10:00:13;;;;;;;;;6.00;6.00;;;;;25.05;46.54;99741.91;6341261;20;2746114;-60
2022/08/12 10:03:09;;;;;;;;;4.33;4.33;;;;;25.18;45.71;99742.13;6288581;20;2747197;-60
2022/08/12 10:06:00;;;;;;;;;4.67;4.67;;;;;25.36;45.29;99744.53;6297337;20;2736732;-60
2022/08/12 10:08:49;;;;;;;;;7.00;5.67;;;;;25.90;44.52;99743.38;6316314;20;2736153;-60
2022/08/12 10:14:28;;;;;;;;;7.00;7.00;;;;;26.53;42.54;99740.09;6284777;20;2737774;-60
2022/08/12 10:17:05;;;;;;;;;5.00;5.00;;;;;26.10;43.05;99745.53;6335233;20;2738809;-61
2022/08/12 10:19:38;;;;;;;;;6.00;5.00;;;;;26.09;43.11;99735.56;6339804;20;2745237;-60
2022/08/12 10:22:20;;;;;;;;;7.80;6.80;;;;;26.91;41.93;99732.41;6306116;20;2744062;-60
2022/08/12 10:31:07;;;;;;;;;6.00;6.00;;;;;25.97;43.27;99727.81;6342158;20;2732723;-60
2022/08/12 10:33:45;;;;;;;;;5.60;5.40;;;;;25.73;43.88;99725.38;6312379;20;2734671;-60
2022/08/12 10:36:35;;;;;;;;;6.67;6.67;;;;;26.25;42.81;99729.81;6284574;20;2738791;-60
2022/08/12 10:39:15;;;;;;;;;6.33;6.33;;;;;26.20;42.47;99719.41;6317071;20;2745320;-60
2022/08/12 10:45:15;;;;;;;;;8.00;7.00;;;;;28.36;39.00;99717.69;6315855;20;2748211;-60
2022/08/12 10:47:47;;;;;;;;;7.00;7.00;;;;;28.49;38.67;99716.03;6318963;20;2737736;-59
2022/08/12 10:50:37;;;;;;;;;4.60;4.60;;;;;28.86;38.14;99711.81;6342338;20;2742040;-60
2022/08/12 10:53:26;;;;;;;;;6.00;6.00;;;;;29.15;36.90;99712.44;6286734;20;2735890;-60
2022/08/12 10:56:16;;;;;;;;;6.00;6.00;;;;;28.40;37.66;99704.31;6314504;20;2746208;-61
2022/08/12 10:58:46;;;;;;;;;4.60;4.60;;;;;28.88;37.97;99696.72;6334265;20;2745140;-58
2022/08/12 11:01:16;;;;;;;;;6.00;6.00;;;;;28.73;38.07;99698.84;6284615;20;2736812;-59
2022/08/12 11:04:09;;;;;;;;;6.00;6.00;;;;;28.82;38.10;99696.72;6326723;20;2584705;-46
2022/08/12 11:06:58;;;;;;;;;6.33;4.67;;;;;29.35;35.85;99702.19;6318694;20;2749232;-46
2022/08/12 11:09:48;;;;;;;;;4.00;4.00;;;;;28.53;36.70;99697.97;6339489;20;2738911;-46
2022/08/12 11:12:31;;;;;;;;;5.33;5.33;;;;;29.49;34.89;99687.28;6286573;20;2740903;-49
2022/08/12 11:15:20;;;;;;;;;7.33;7.33;;;;;28.62;37.41;99691.19;6318223;20;2744166;-46
2022/08/12 11:18:09;;;;;;;;;4.00;4.00;;;;;28.59;37.18;99683.31;6319382;20;2732559;-57
2022/08/12 11:20:46;;;;;;;;;4.33;4.33;;;;;29.39;36.52;99688.81;6316801;20;2740915;-53
2022/08/12 11:23:17;;;;;;;;;4.33;4.33;;;;;29.45;35.32;99686.00;6316300;20;2729531;-52
2022/08/12 11:26:05;;;;;;;;;5.67;5.33;;;;;28.84;36.84;99672.47;6314941;20;2739858;-56
2022/08/12 11:28:37;;;;;;;;;8.00;7.00;;;;;29.66;35.99;99675.75;6317937;20;2734627;-61
2022/08/12 11:31:08;;;;;;;;;6.33;6.33;;;;;29.07;36.46;99672.06;6316061;20;2737758;-61
2022/08/12 11:33:43;;;;;;;;;4.00;4.00;;;;;28.59;36.94;99675.88;6317171;20;2745684;-56
2022/08/12 11:36:32;;;;;;;;;6.80;5.40;;;;;28.54;37.11;99670.16;6343730;20;2746231;-61
2022/08/12 11:39:08;;;;;;;;;1.80;1.80;;;;;28.13;37.16;99664.75;6313378;20;2741008;-57
2022/08/12 11:41:39;;;;;;;;;6.00;6.00;;;;;29.53;35.21;99671.91;6321543;20;2741278;-55
2022/08/12 11:44:11;;;;;;;;;6.00;6.00;;;;;28.66;36.96;99659.31;6321941;20;2735767;-60
2022/08/12 11:47:00;;;;;;;;;6.33;5.33;;;;;28.67;35.90;99661.00;6320691;20;2745114;-58
2022/08/12 11:49:29;;;;;;;;;6.67;6.67;;;;;29.60;35.44;99660.84;6319057;20;2739842;-58
2022/08/12 11:52:01;;;;;;;;;4.67;4.67;;;;;29.36;36.21;99662.44;6321918;20;2742998;-59
2022/08/12 11:54:31;;;;;;;;;4.67;2.67;;;;;29.21;35.22;99651.59;6318784;20;2748373;-59
2022/08/12 11:57:01;;;;;;;;;8.00;6.00;;;;;29.30;36.02;99653.06;6321489;20;2737747;-56
2022/08/12 11:59:51;;;;;;;;;6.80;5.00;;;;;29.21;35.05;99651.59;6347257;20;2743995;-56
2022/08/12 12:02:40;;;;;;;;;4.33;4.33;;;;;29.70;35.92;99654.84;6289665;20;2737804;-55
2022/08/12 12:05:09;;;;;;;;;3.67;3.67;;;;;29.24;35.47;99650.31;6316749;20;2741956;-58
2022/08/12 12:07:40;;;;;;;;;3.00;3.00;;;;;29.09;35.13;99643.09;6342360;20;2754494;-64
2022/08/12 12:10:29;;;;;;;;;5.33;5.33;;;;;29.34;35.28;99639.66;6322525;20;2745123;-62
2022/08/12 12:12:58;;;;;;;;;4.40;4.00;;;;;29.36;35.90;99640.28;6341638;20;2747149;-62
2022/08/12 12:15:30;;;;;;;;;7.00;5.00;;;;;29.26;35.44;99632.44;6288232;20;2742021;-58
2022/08/12 12:18:32;;;;;;;;;7.33;5.33;;;;;29.83;35.08;99621.56;6320576;20;2747165;-60
2022/08/12 12:21:06;;;;;;;;;1.00;1.00;;;;;28.48;36.20;99625.94;6343227;20;2744043;-58
2022/08/12 12:23:36;;;;;;;;;6.33;5.33;;;;;28.72;36.62;99632.72;6290987;20;2737786;-58
2022/08/12 12:26:05;;;;;;;;;6.00;6.00;;;;;28.86;35.40;99637.19;6319607;20;2741941;-58
2022/08/12 12:28:46;;;;;;;;;2.40;2.40;;;;;28.38;36.11;99629.09;6346331;20;2727352;-59
2022/08/12 12:31:23;;;;;;;;;4.33;4.33;;;;;28.16;36.65;99632.03;6322184;20;2741940;-59
2022/08/12 12:34:12;;;;;;;;;4.20;3.20;;;;;28.03;36.21;99626.50;6343254;20;2752495;-58
2022/08/12 12:36:58;;;;;;;;;4.00;4.00;;;;;28.24;36.18;99626.31;6289598;20;2728386;-58
2022/08/12 12:39:29;;;;;;;;;5.00;5.00;;;;;28.36;36.22;99625.72;6345932;20;2735722;-57
2022/08/12 12:42:17;;;;;;;;;4.33;4.33;;;;;29.22;35.81;99628.41;6296177;20;2745220;-58
2022/08/12 12:45:08;;;;;;;;;2.80;2.80;;;;;28.28;35.89;99617.59;6341156;20;2744133;-61
2022/08/12 12:47:58;;;;;;;;;4.00;4.00;;;;;27.95;36.15;99612.91;6290478;20;2722118;-60
2022/08/12 12:50:32;;;;;;;;;6.00;6.00;;;;;28.12;36.62;99619.75;6321792;20;2740896;-57
2022/08/12 12:53:04;;;;;;;;;8.00;6.00;;;;;28.08;36.66;99614.84;6318691;20;2748375;-56
2022/08/12 12:55:34;;;;;;;;;8.00;6.00;;;;;28.42;36.69;99608.28;6321919;20;2748317;-57
2022/08/12 12:58:13;;;;;;;;;5.00;5.00;;;;;27.96;37.09;99609.06;6317835;20;2737858;-58
2022/08/12 13:00:43;;;;;;;;;6.00;6.00;;;;;28.06;37.26;99603.16;6321284;20;2738806;-58
2022/08/12 13:03:20;;;;;;;;;8.33;6.00;;;;;28.22;36.50;99592.53;6320252;20;2748306;-58
2022/08/12 13:05:49;;;;;;;;;4.33;4.33;;;;;28.01;36.37;99595.50;6322639;20;2747269;-57
2022/08/12 13:08:30;;;;;;;;;4.33;4.33;;;;;28.15;36.54;99594.47;6321154;20;2734625;-58
2022/08/12 13:11:06;;;;;;;;;5.20;4.80;;;;;29.21;34.34;99592.69;6342155;20;2745158;-57
2022/08/12 13:13:36;;;;;;;;;7.80;4.60;;;;;28.80;35.37;99596.56;6310163;20;2736804;-57
2022/08/12 13:16:28;;;;;;;;;4.20;3.40;;;;;28.18;36.00;99584.91;6308609;20;2750424;-58
2022/08/12 13:18:57;;;;;;;;;8.00;6.40;;;;;28.97;35.06;99589.53;6312028;20;2737742;-58
2022/08/12 13:21:28;;;;;;;;;8.00;6.67;;;;;29.08;34.94;99588.88;6286592;20;2744120;-58
2022/08/12 13:24:04;;;;;;;;;7.00;6.00;;;;;29.00;34.02;99586.34;6316646;20;2746164;-60
2022/08/12 13:26:39;;;;;;;;;5.33;5.33;;;;;29.41;34.42;99585.16;6317469;20;2738787;-59
2022/08/12 13:29:07;;;;;;;;;3.00;3.00;;;;;28.91;34.55;99584.00;6321092;20;2753412;-59
2022/08/12 13:31:41;;;;;;;;;6.67;6.67;;;;;28.24;34.79;99568.34;6320478;20;2735691;-58
2022/08/12 13:34:29;;;;;;;;;6.00;5.33;;;;;29.00;34.55;99575.28;6319064;20;2741957;-58
2022/08/12 13:37:06;;;;;;;;;4.00;3.00;;;;;28.73;34.83;99570.88;6316556;20;2748200;-58
2022/08/12 13:39:38;;;;;;;;;5.00;4.33;;;;;28.24;36.03;99571.09;6318049;20;2722544;-59
2022/08/12 13:42:08;;;;;;;;;11.33;8.33;;;;;28.71;35.36;99567.50;6314381;20;2768996;-59
2022/08/12 13:44:45;;;;;;;;;6.00;5.00;;;;;28.64;33.51;99568.31;6319432;20;2733675;-58
2022/08/12 13:47:23;;;;;;;;;5.00;5.00;;;;;29.02;33.56;99569.53;6340422;20;2744002;-59
2022/08/12 13:49:52;;;;;;;;;6.00;5.00;;;;;29.52;32.51;99572.56;6287692;20;2743038;-60
2022/08/12 13:52:23;;;;;;;;;4.33;4.33;;;;;29.77;31.35;99556.03;6321385;20;2742987;-59
2022/08/12 13:54:53;;;;;;;;;5.40;4.20;;;;;29.69;31.79;99561.84;6342019;20;2744022;-59
2022/08/12 13:57:42;;;;;;;;;2.40;2.00;;;;;29.70;32.11;99556.09;6310031;20;2744060;-59